Terminal Aerodrome Forecast
Issued by NWS

Home | Current Version | Previous Version | Text Only | Print | Product List | Glossary On
Versions: 1 2 3 4 5 6 7 8 9 10 11 12 13 14 15 16 17 18
863
FTUS43 KDTX 200528
TAFDET
TAF
KDET 200528Z 2006/2106 VRB04KT P6SM SKC
     FM201400 32008KT P6SM SCT200
     FM210000 VRB03KT P6SM SKC=

USA.gov is the U.S. government's official web portal to all federal, state and local government web resources and services.